sensor_id;sensor_type;location;lat;lon;timestamp;temperature;humidity
6102;DHT22;3081;50.584;7.032;2023-08-17T00:00:56;19.90;99.90
6102;DHT22;3081;50.584;7.032;2023-08-17T00:03:22;19.90;99.90
6102;DHT22;3081;50.584;7.032;2023-08-17T00:05:51;19.90;99.90
6102;DHT22;3081;50.584;7.032;2023-08-17T00:08:18;19.90;99.90
6102;DHT22;3081;50.584;7.032;2023-08-17T00:10:44;19.90;99.90
6102;DHT22;3081;50.584;7.032;2023-08-17T00:13:12;19.90;99.90
6102;DHT22;3081;50.584;7.032;2023-08-17T00:15:40;19.80;99.90
6102;DHT22;3081;50.584;7.032;2023-08-17T00:18:06;19.80;99.90
6102;DHT22;3081;50.584;7.032;2023-08-17T00:20:33;19.80;99.90
6102;DHT22;3081;50.584;7.032;2023-08-17T00:23:02;19.80;99.90
6102;DHT22;3081;50.584;7.032;2023-08-17T00:25:29;19.70;99.90
6102;DHT22;3081;50.584;7.032;2023-08-17T00:27:56;19.70;99.90
6102;DHT22;3081;50.584;7.032;2023-08-17T00:30:23;19.80;99.90
6102;DHT22;3081;50.584;7.032;2023-08-17T00:32:50;19.80;99.90
6102;DHT22;3081;50.584;7.032;2023-08-17T00:35:17;19.80;99.90
6102;DHT22;3081;50.584;7.032;2023-08-17T00:37:44;19.80;99.90
6102;DHT22;3081;50.584;7.032;2023-08-17T00:40:12;19.80;99.90
6102;DHT22;3081;50.584;7.032;2023-08-17T00:42:39;19.90;99.90
6102;DHT22;3081;50.584;7.032;2023-08-17T00:45:07;19.90;99.90
6102;DHT22;3081;50.584;7.032;2023-08-17T00:47:34;19.90;99.90
6102;DHT22;3081;50.584;7.032;2023-08-17T00:50:01;19.90;99.90
6102;DHT22;3081;50.584;7.032;2023-08-17T00:52:28;19.90;99.90
6102;DHT22;3081;50.584;7.032;2023-08-17T00:54:57;19.80;99.90
6102;DHT22;3081;50.584;7.032;2023-08-17T00:57:26;19.80;99.90
6102;DHT22;3081;50.584;7.032;2023-08-17T00:59:53;19.80;99.90
6102;DHT22;3081;50.584;7.032;2023-08-17T01:02:20;19.70;99.90
6102;DHT22;3081;50.584;7.032;2023-08-17T01:04:47;19.70;99.90
6102;DHT22;3081;50.584;7.032;2023-08-17T01:07:14;19.70;99.90
6102;DHT22;3081;50.584;7.032;2023-08-17T01:09:41;19.70;99.90
6102;DHT22;3081;50.584;7.032;2023-08-17T01:12:13;19.70;99.90
6102;DHT22;3081;50.584;7.032;2023-08-17T01:14:52;19.70;99.90
6102;DHT22;3081;50.584;7.032;2023-08-17T01:17:26;19.70;99.90
6102;DHT22;3081;50.584;7.032;2023-08-17T01:19:55;19.70;99.90
6102;DHT22;3081;50.584;7.032;2023-08-17T01:22:22;19.70;99.90
6102;DHT22;3081;50.584;7.032;2023-08-17T01:24:54;19.60;99.90
6102;DHT22;3081;50.584;7.032;2023-08-17T01:27:23;19.60;99.90
6102;DHT22;3081;50.584;7.032;2023-08-17T01:29:50;19.60;99.90
6102;DHT22;3081;50.584;7.032;2023-08-17T01:32:26;19.70;99.90
6102;DHT22;3081;50.584;7.032;2023-08-17T01:35:04;19.60;99.90
6102;DHT22;3081;50.584;7.032;2023-08-17T01:37:36;19.60;99.90
6102;DHT22;3081;50.584;7.032;2023-08-17T01:40:08;19.60;99.90
6102;DHT22;3081;50.584;7.032;2023-08-17T01:42:36;19.60;99.90
6102;DHT22;3081;50.584;7.032;2023-08-17T01:45:05;19.60;99.90
6102;DHT22;3081;50.584;7.032;2023-08-17T01:47:32;19.60;99.90
6102;DHT22;3081;50.584;7.032;2023-08-17T01:49:58;19.60;99.90
6102;DHT22;3081;50.584;7.032;2023-08-17T01:52:27;19.70;99.90
6102;DHT22;3081;50.584;7.032;2023-08-17T01:54:54;19.60;99.90
6102;DHT22;3081;50.584;7.032;2023-08-17T01:57:23;19.60;99.90
6102;DHT22;3081;50.584;7.032;2023-08-17T01:59:49;19.60;99.90
6102;DHT22;3081;50.584;7.032;2023-08-17T02:02:16;19.70;99.90
6102;DHT22;3081;50.584;7.032;2023-08-17T02:04:43;19.70;99.90
6102;DHT22;3081;50.584;7.032;2023-08-17T02:07:10;19.70;99.90
6102;DHT22;3081;50.584;7.032;2023-08-17T02:09:37;19.70;99.90
6102;DHT22;3081;50.584;7.032;2023-08-17T02:12:05;19.70;99.90
6102;DHT22;3081;50.584;7.032;2023-08-17T02:14:33;19.60;99.90
6102;DHT22;3081;50.584;7.032;2023-08-17T02:17:00;19.60;99.90
6102;DHT22;3081;50.584;7.032;2023-08-17T02:19:27;19.60;99.90
6102;DHT22;3081;50.584;7.032;2023-08-17T02:21:54;19.60;99.90
6102;DHT22;3081;50.584;7.032;2023-08-17T02:24:21;19.60;99.90
6102;DHT22;3081;50.584;7.032;2023-08-17T02:26:47;19.60;99.90
6102;DHT22;3081;50.584;7.032;2023-08-17T02:29:14;19.50;99.90
6102;DHT22;3081;50.584;7.032;2023-08-17T02:31:43;19.50;99.90
6102;DHT22;3081;50.584;7.032;2023-08-17T02:34:09;19.50;99.90
6102;DHT22;3081;50.584;7.032;2023-08-17T02:36:36;19.50;99.90
6102;DHT22;3081;50.584;7.032;2023-08-17T02:39:03;19.50;99.90
6102;DHT22;3081;50.584;7.032;2023-08-17T02:41:30;19.50;99.90
6102;DHT22;3081;50.584;7.032;2023-08-17T02:43:58;19.50;99.90
6102;DHT22;3081;50.584;7.032;2023-08-17T02:46:24;19.50;99.90
6102;DHT22;3081;50.584;7.032;2023-08-17T02:48:53;19.60;99.90
6102;DHT22;3081;50.584;7.032;2023-08-17T02:51:20;19.50;99.90
6102;DHT22;3081;50.584;7.032;2023-08-17T02:53:47;19.50;99.90
6102;DHT22;3081;50.584;7.032;2023-08-17T02:56:13;19.50;99.90
6102;DHT22;3081;50.584;7.032;2023-08-17T02:58:40;19.40;99.90
6102;DHT22;3081;50.584;7.032;2023-08-17T03:01:08;19.50;99.90
6102;DHT22;3081;50.584;7.032;2023-08-17T03:03:35;19.50;99.90
6102;DHT22;3081;50.584;7.032;2023-08-17T03:06:05;19.50;99.90
6102;DHT22;3081;50.584;7.032;2023-08-17T03:08:32;19.60;99.90
6102;DHT22;3081;50.584;7.032;2023-08-17T03:10:59;19.50;99.90
6102;DHT22;3081;50.584;7.032;2023-08-17T03:13:26;19.50;99.90
6102;DHT22;3081;50.584;7.032;2023-08-17T03:15:54;19.50;99.90
6102;DHT22;3081;50.584;7.032;2023-08-17T03:18:21;19.50;99.90
6102;DHT22;3081;50.584;7.032;2023-08-17T03:20:48;19.40;99.90
6102;DHT22;3081;50.584;7.032;2023-08-17T03:23:16;19.40;99.90
6102;DHT22;3081;50.584;7.032;2023-08-17T03:25:43;19.40;99.90
6102;DHT22;3081;50.584;7.032;2023-08-17T03:28:11;19.40;99.90
6102;DHT22;3081;50.584;7.032;2023-08-17T03:30:38;19.30;99.90
6102;DHT22;3081;50.584;7.032;2023-08-17T03:33:05;19.30;99.90
6102;DHT22;3081;50.584;7.032;2023-08-17T03:35:32;19.30;99.90
6102;DHT22;3081;50.584;7.032;2023-08-17T03:37:59;19.30;99.90
6102;DHT22;3081;50.584;7.032;2023-08-17T03:40:27;19.30;99.90
6102;DHT22;3081;50.584;7.032;2023-08-17T03:42:54;19.30;99.90
6102;DHT22;3081;50.584;7.032;2023-08-17T03:45:21;19.40;99.90
6102;DHT22;3081;50.584;7.032;2023-08-17T03:47:48;19.40;99.90
6102;DHT22;3081;50.584;7.032;2023-08-17T03:50:15;19.40;99.90
6102;DHT22;3081;50.584;7.032;2023-08-17T03:52:42;19.40;99.90
6102;DHT22;3081;50.584;7.032;2023-08-17T03:55:09;19.40;99.90
6102;DHT22;3081;50.584;7.032;2023-08-17T03:57:38;19.30;99.90
6102;DHT22;3081;50.584;7.032;2023-08-17T04:00:05;19.40;99.90
6102;DHT22;3081;50.584;7.032;2023-08-17T04:02:33;19.30;99.90
6102;DHT22;3081;50.584;7.032;2023-08-17T04:05:00;19.30;99.90
6102;DHT22;3081;50.584;7.032;2023-08-17T04:07:27;19.30;99.90
6102;DHT22;3081;50.584;7.032;2023-08-17T04:09:54;19.40;99.90
6102;DHT22;3081;50.584;7.032;2023-08-17T04:12:21;19.40;99.90
6102;DHT22;3081;50.584;7.032;2023-08-17T04:14:49;19.40;99.90
6102;DHT22;3081;50.584;7.032;2023-08-17T04:17:16;19.40;99.90
6102;DHT22;3081;50.584;7.032;2023-08-17T04:19:43;19.40;99.90
6102;DHT22;3081;50.584;7.032;2023-08-17T04:22:09;19.50;99.90
6102;DHT22;3081;50.584;7.032;2023-08-17T04:24:36;19.50;99.90
6102;DHT22;3081;50.584;7.032;2023-08-17T04:27:04;19.50;99.90
6102;DHT22;3081;50.584;7.032;2023-08-17T04:29:31;19.50;99.90
6102;DHT22;3081;50.584;7.032;2023-08-17T04:31:59;19.40;99.90
6102;DHT22;3081;50.584;7.032;2023-08-17T04:34:26;19.40;99.90
6102;DHT22;3081;50.584;7.032;2023-08-17T04:36:53;19.40;99.90
6102;DHT22;3081;50.584;7.032;2023-08-17T04:39:20;19.40;99.90
6102;DHT22;3081;50.584;7.032;2023-08-17T04:41:47;19.40;99.90
6102;DHT22;3081;50.584;7.032;2023-08-17T04:44:14;19.40;99.90
6102;DHT22;3081;50.584;7.032;2023-08-17T04:46:41;19.40;99.90
6102;DHT22;3081;50.584;7.032;2023-08-17T04:49:09;19.40;99.90
6102;DHT22;3081;50.584;7.032;2023-08-17T04:51:36;19.40;99.90
6102;DHT22;3081;50.584;7.032;2023-08-17T04:54:03;19.40;99.90
6102;DHT22;3081;50.584;7.032;2023-08-17T04:56:30;19.40;99.90
6102;DHT22;3081;50.584;7.032;2023-08-17T04:58:57;19.50;99.90
6102;DHT22;3081;50.584;7.032;2023-08-17T05:01:24;19.40;99.90
6102;DHT22;3081;50.584;7.032;2023-08-17T05:03:51;19.50;99.90
6102;DHT22;3081;50.584;7.032;2023-08-17T05:06:19;19.50;99.90
6102;DHT22;3081;50.584;7.032;2023-08-17T05:08:46;19.60;99.90
6102;DHT22;3081;50.584;7.032;2023-08-17T05:11:13;19.50;99.90
6102;DHT22;3081;50.584;7.032;2023-08-17T05:13:40;19.50;99.90
6102;DHT22;3081;50.584;7.032;2023-08-17T05:16:07;19.60;99.90
6102;DHT22;3081;50.584;7.032;2023-08-17T05:18:33;19.60;99.90
6102;DHT22;3081;50.584;7.032;2023-08-17T05:21:00;19.60;99.90
6102;DHT22;3081;50.584;7.032;2023-08-17T05:23:29;19.60;99.90
6102;DHT22;3081;50.584;7.032;2023-08-17T05:25:56;19.60;99.90
6102;DHT22;3081;50.584;7.032;2023-08-17T05:28:22;19.60;99.90
6102;DHT22;3081;50.584;7.032;2023-08-17T05:30:49;19.60;99.90
6102;DHT22;3081;50.584;7.032;2023-08-17T05:33:17;19.60;99.90
6102;DHT22;3081;50.584;7.032;2023-08-17T08:34:54;20.40;99.90
6102;DHT22;3081;50.584;7.032;2023-08-17T08:37:21;21.60;99.90
6102;DHT22;3081;50.584;7.032;2023-08-17T08:39:49;21.60;99.90
6102;DHT22;3081;50.584;7.032;2023-08-17T08:42:17;21.60;99.90
6102;DHT22;3081;50.584;7.032;2023-08-17T08:44:44;21.70;99.90
6102;DHT22;3081;50.584;7.032;2023-08-17T08:47:11;21.90;99.90
6102;DHT22;3081;50.584;7.032;2023-08-17T08:49:40;22.00;99.90
6102;DHT22;3081;50.584;7.032;2023-08-17T08:52:23;22.10;99.90
6102;DHT22;3081;50.584;7.032;2023-08-17T08:54:50;22.10;99.90
6102;DHT22;3081;50.584;7.032;2023-08-17T08:57:21;22.20;99.90
6102;DHT22;3081;50.584;7.032;2023-08-17T08:59:49;22.40;99.90
6102;DHT22;3081;50.584;7.032;2023-08-17T09:02:16;22.50;99.90
6102;DHT22;3081;50.584;7.032;2023-08-17T09:04:43;22.70;99.90
6102;DHT22;3081;50.584;7.032;2023-08-17T09:07:13;23.00;99.90
6102;DHT22;3081;50.584;7.032;2023-08-17T09:09:40;23.30;99.90
6102;DHT22;3081;50.584;7.032;2023-08-17T09:12:07;23.60;99.90
6102;DHT22;3081;50.584;7.032;2023-08-17T09:14:35;23.80;99.90
6102;DHT22;3081;50.584;7.032;2023-08-17T09:17:03;24.20;99.90
6102;DHT22;3081;50.584;7.032;2023-08-17T09:19:31;24.40;99.90
6102;DHT22;3081;50.584;7.032;2023-08-17T09:21:58;24.50;99.90
6102;DHT22;3081;50.584;7.032;2023-08-17T09:24:34;24.30;99.90
6102;DHT22;3081;50.584;7.032;2023-08-17T09:27:01;24.20;99.90
6102;DHT22;3081;50.584;7.032;2023-08-17T09:29:28;24.30;99.90
6102;DHT22;3081;50.584;7.032;2023-08-17T09:31:58;24.50;99.90
6102;DHT22;3081;50.584;7.032;2023-08-17T09:34:31;24.70;99.90
6102;DHT22;3081;50.584;7.032;2023-08-17T09:37:02;24.60;99.90
6102;DHT22;3081;50.584;7.032;2023-08-17T09:39:31;24.60;99.90
6102;DHT22;3081;50.584;7.032;2023-08-17T09:41:58;24.60;99.90
6102;DHT22;3081;50.584;7.032;2023-08-17T09:44:25;24.50;99.90
6102;DHT22;3081;50.584;7.032;2023-08-17T09:46:55;24.40;99.90
6102;DHT22;3081;50.584;7.032;2023-08-17T09:49:23;24.50;99.90
6102;DHT22;3081;50.584;7.032;2023-08-17T09:51:50;24.60;99.90
6102;DHT22;3081;50.584;7.032;2023-08-17T09:54:22;24.50;99.90
6102;DHT22;3081;50.584;7.032;2023-08-17T09:56:51;24.50;99.90
6102;DHT22;3081;50.584;7.032;2023-08-17T09:59:19;24.40;99.90
6102;DHT22;3081;50.584;7.032;2023-08-17T10:01:48;24.40;99.90
6102;DHT22;3081;50.584;7.032;2023-08-17T10:04:17;24.20;99.90
6102;DHT22;3081;50.584;7.032;2023-08-17T10:06:48;24.20;99.90
6102;DHT22;3081;50.584;7.032;2023-08-17T10:09:22;24.20;99.90
6102;DHT22;3081;50.584;7.032;2023-08-17T10:11:54;24.30;99.90
6102;DHT22;3081;50.584;7.032;2023-08-17T10:14:28;24.40;99.90
6102;DHT22;3081;50.584;7.032;2023-08-17T10:17:00;24.50;99.90
6102;DHT22;3081;50.584;7.032;2023-08-17T10:19:36;24.60;99.90
6102;DHT22;3081;50.584;7.032;2023-08-17T10:22:08;24.70;99.90
6102;DHT22;3081;50.584;7.032;2023-08-17T10:24:37;24.90;99.90
6102;DHT22;3081;50.584;7.032;2023-08-17T10:27:06;24.80;99.90
6102;DHT22;3081;50.584;7.032;2023-08-17T10:29:33;24.60;99.90
6102;DHT22;3081;50.584;7.032;2023-08-17T10:32:01;24.40;99.90
6102;DHT22;3081;50.584;7.032;2023-08-17T10:34:29;24.30;99.90
6102;DHT22;3081;50.584;7.032;2023-08-17T10:36:57;24.20;99.90
6102;DHT22;3081;50.584;7.032;2023-08-17T10:39:26;24.20;99.90
6102;DHT22;3081;50.584;7.032;2023-08-17T10:41:54;24.20;99.90
6102;DHT22;3081;50.584;7.032;2023-08-17T10:44:40;24.00;99.90
6102;DHT22;3081;50.584;7.032;2023-08-17T10:47:24;24.00;99.90
6102;DHT22;3081;50.584;7.032;2023-08-17T10:49:51;24.00;99.90
6102;DHT22;3081;50.584;7.032;2023-08-17T10:52:29;23.90;99.90
6102;DHT22;3081;50.584;7.032;2023-08-17T10:54:59;23.90;99.90
6102;DHT22;3081;50.584;7.032;2023-08-17T10:57:33;23.90;99.90
6102;DHT22;3081;50.584;7.032;2023-08-17T11:00:17;24.00;99.90
6102;DHT22;3081;50.584;7.032;2023-08-17T11:02:52;24.20;99.90
6102;DHT22;3081;50.584;7.032;2023-08-17T11:05:40;24.50;99.90
6102;DHT22;3081;50.584;7.032;2023-08-17T11:11:31;25.60;99.90
6102;DHT22;3081;50.584;7.032;2023-08-17T11:13:57;27.20;99.90
6102;DHT22;3081;50.584;7.032;2023-08-17T11:16:26;28.60;99.90
6102;DHT22;3081;50.584;7.032;2023-08-17T11:18:53;29.80;99.90
6102;DHT22;3081;50.584;7.032;2023-08-17T11:21:23;30.40;99.90
6102;DHT22;3081;50.584;7.032;2023-08-17T11:23:50;30.20;99.90
6102;DHT22;3081;50.584;7.032;2023-08-17T11:26:17;29.60;99.90
6102;DHT22;3081;50.584;7.032;2023-08-17T11:28:44;29.30;99.90
6102;DHT22;3081;50.584;7.032;2023-08-17T11:31:13;29.20;99.90
6102;DHT22;3081;50.584;7.032;2023-08-17T11:33:42;29.00;99.90
6102;DHT22;3081;50.584;7.032;2023-08-17T11:36:10;28.90;99.90
6102;DHT22;3081;50.584;7.032;2023-08-17T11:38:38;28.50;99.90
6102;DHT22;3081;50.584;7.032;2023-08-17T11:41:06;28.20;99.90
6102;DHT22;3081;50.584;7.032;2023-08-17T11:43:34;28.10;99.90
6102;DHT22;3081;50.584;7.032;2023-08-17T11:46:01;28.20;99.90
6102;DHT22;3081;50.584;7.032;2023-08-17T11:48:29;28.20;99.90
6102;DHT22;3081;50.584;7.032;2023-08-17T11:50:58;28.10;99.90
6102;DHT22;3081;50.584;7.032;2023-08-17T11:53:25;28.10;99.90
6102;DHT22;3081;50.584;7.032;2023-08-17T11:55:59;28.10;99.90
6102;DHT22;3081;50.584;7.032;2023-08-17T11:58:36;27.90;99.90
6102;DHT22;3081;50.584;7.032;2023-08-17T12:01:09;27.90;99.90
6102;DHT22;3081;50.584;7.032;2023-08-17T12:03:36;27.80;99.90
6102;DHT22;3081;50.584;7.032;2023-08-17T12:06:06;27.90;99.90
6102;DHT22;3081;50.584;7.032;2023-08-17T12:08:33;28.20;99.90
6102;DHT22;3081;50.584;7.032;2023-08-17T12:11:00;28.70;99.90
6102;DHT22;3081;50.584;7.032;2023-08-17T12:13:35;29.20;99.90
6102;DHT22;3081;50.584;7.032;2023-08-17T12:16:02;29.70;99.90
6102;DHT22;3081;50.584;7.032;2023-08-17T12:18:32;30.70;99.90
6102;DHT22;3081;50.584;7.032;2023-08-17T12:20:59;31.30;99.90
6102;DHT22;3081;50.584;7.032;2023-08-17T12:23:28;32.00;99.90
6102;DHT22;3081;50.584;7.032;2023-08-17T12:25:55;32.70;99.90
6102;DHT22;3081;50.584;7.032;2023-08-17T12:28:23;33.30;99.90
6102;DHT22;3081;50.584;7.032;2023-08-17T12:30:57;33.60;99.90
6102;DHT22;3081;50.584;7.032;2023-08-17T12:33:24;33.50;99.90
6102;DHT22;3081;50.584;7.032;2023-08-17T12:35:51;32.90;99.90
6102;DHT22;3081;50.584;7.032;2023-08-17T12:38:19;32.60;99.90
6102;DHT22;3081;50.584;7.032;2023-08-17T12:40:47;32.30;99.90
6102;DHT22;3081;50.584;7.032;2023-08-17T12:43:14;32.00;99.90
6102;DHT22;3081;50.584;7.032;2023-08-17T12:45:41;31.60;99.90
6102;DHT22;3081;50.584;7.032;2023-08-17T12:48:08;31.20;99.90
6102;DHT22;3081;50.584;7.032;2023-08-17T12:50:34;30.60;99.90
6102;DHT22;3081;50.584;7.032;2023-08-17T12:53:01;30.00;99.90
6102;DHT22;3081;50.584;7.032;2023-08-17T12:55:28;29.60;99.90
6102;DHT22;3081;50.584;7.032;2023-08-17T12:57:57;29.40;99.90
6102;DHT22;3081;50.584;7.032;2023-08-17T13:00:24;29.20;99.90
6102;DHT22;3081;50.584;7.032;2023-08-17T13:02:50;29.10;99.90
6102;DHT22;3081;50.584;7.032;2023-08-17T13:05:17;28.90;99.90
6102;DHT22;3081;50.584;7.032;2023-08-17T13:10:34;28.30;99.90
6102;DHT22;3081;50.584;7.032;2023-08-17T13:13:02;28.10;99.90
6102;DHT22;3081;50.584;7.032;2023-08-17T13:15:32;27.90;99.90
6102;DHT22;3081;50.584;7.032;2023-08-17T13:17:59;27.90;99.90
6102;DHT22;3081;50.584;7.032;2023-08-17T13:20:26;27.90;99.90
6102;DHT22;3081;50.584;7.032;2023-08-17T13:22:53;28.00;99.90
6102;DHT22;3081;50.584;7.032;2023-08-17T13:25:20;28.30;99.90
6102;DHT22;3081;50.584;7.032;2023-08-17T13:27:47;28.40;99.90
6102;DHT22;3081;50.584;7.032;2023-08-17T13:30:15;28.70;99.90
6102;DHT22;3081;50.584;7.032;2023-08-17T13:32:42;29.00;99.90
6102;DHT22;3081;50.584;7.032;2023-08-17T13:35:09;29.40;99.90
6102;DHT22;3081;50.584;7.032;2023-08-17T13:37:36;30.00;99.90
6102;DHT22;3081;50.584;7.032;2023-08-17T13:40:04;30.80;99.90
6102;DHT22;3081;50.584;7.032;2023-08-17T13:42:32;31.20;99.90
6102;DHT22;3081;50.584;7.032;2023-08-17T13:44:59;31.70;99.90
6102;DHT22;3081;50.584;7.032;2023-08-17T13:47:27;31.70;99.90
6102;DHT22;3081;50.584;7.032;2023-08-17T13:49:54;31.50;99.90
6102;DHT22;3081;50.584;7.032;2023-08-17T13:52:22;31.20;99.90
6102;DHT22;3081;50.584;7.032;2023-08-17T13:54:49;31.30;99.90
6102;DHT22;3081;50.584;7.032;2023-08-17T13:57:16;31.40;99.90
6102;DHT22;3081;50.584;7.032;2023-08-17T13:59:43;31.60;99.90
6102;DHT22;3081;50.584;7.032;2023-08-17T14:02:10;31.80;99.90
6102;DHT22;3081;50.584;7.032;2023-08-17T14:04:38;31.90;99.90
6102;DHT22;3081;50.584;7.032;2023-08-17T14:07:05;31.90;99.90
6102;DHT22;3081;50.584;7.032;2023-08-17T14:09:32;32.30;99.90
6102;DHT22;3081;50.584;7.032;2023-08-17T14:11:59;34.40;99.90
6102;DHT22;3081;50.584;7.032;2023-08-17T14:14:27;37.00;99.90
6102;DHT22;3081;50.584;7.032;2023-08-17T14:16:54;37.90;99.90
6102;DHT22;3081;50.584;7.032;2023-08-17T14:19:21;37.50;99.90
6102;DHT22;3081;50.584;7.032;2023-08-17T14:21:49;36.80;99.90
6102;DHT22;3081;50.584;7.032;2023-08-17T14:24:16;36.10;99.90
6102;DHT22;3081;50.584;7.032;2023-08-17T14:26:43;35.60;99.90
6102;DHT22;3081;50.584;7.032;2023-08-17T14:29:10;35.20;99.90
6102;DHT22;3081;50.584;7.032;2023-08-17T14:31:37;35.50;99.90
6102;DHT22;3081;50.584;7.032;2023-08-17T14:34:04;37.50;99.90
6102;DHT22;3081;50.584;7.032;2023-08-17T14:36:31;40.00;99.90
6102;DHT22;3081;50.584;7.032;2023-08-17T14:38:59;41.70;98.60
6102;DHT22;3081;50.584;7.032;2023-08-17T14:41:26;41.90;96.00
6102;DHT22;3081;50.584;7.032;2023-08-17T14:43:57;40.90;94.30
6102;DHT22;3081;50.584;7.032;2023-08-17T14:46:25;39.40;94.40
6102;DHT22;3081;50.584;7.032;2023-08-17T14:48:52;38.10;95.20
6102;DHT22;3081;50.584;7.032;2023-08-17T14:51:19;36.70;96.00
6102;DHT22;3081;50.584;7.032;2023-08-17T14:53:46;35.40;97.00
6102;DHT22;3081;50.584;7.032;2023-08-17T14:56:14;34.30;98.50
6102;DHT22;3081;50.584;7.032;2023-08-17T14:58:41;33.30;99.40
6102;DHT22;3081;50.584;7.032;2023-08-17T15:01:08;32.50;99.90
6102;DHT22;3081;50.584;7.032;2023-08-17T15:03:34;32.10;99.90
6102;DHT22;3081;50.584;7.032;2023-08-17T15:06:02;31.60;99.90
6102;DHT22;3081;50.584;7.032;2023-08-17T15:08:29;31.30;99.90
6102;DHT22;3081;50.584;7.032;2023-08-17T15:10:56;31.10;99.90
6102;DHT22;3081;50.584;7.032;2023-08-17T15:13:28;30.80;99.90
6102;DHT22;3081;50.584;7.032;2023-08-17T15:15:55;30.90;99.90
6102;DHT22;3081;50.584;7.032;2023-08-17T15:18:22;31.10;99.90
6102;DHT22;3081;50.584;7.032;2023-08-17T15:20:49;32.20;99.90
6102;DHT22;3081;50.584;7.032;2023-08-17T15:23:16;33.00;99.90
6102;DHT22;3081;50.584;7.032;2023-08-17T15:25:43;33.10;99.90
6102;DHT22;3081;50.584;7.032;2023-08-17T15:28:10;33.50;99.90
6102;DHT22;3081;50.584;7.032;2023-08-17T15:30:38;34.30;99.90
6102;DHT22;3081;50.584;7.032;2023-08-17T15:33:05;36.20;99.90
6102;DHT22;3081;50.584;7.032;2023-08-17T15:35:32;37.50;99.80
6102;DHT22;3081;50.584;7.032;2023-08-17T15:37:59;38.10;98.30
6102;DHT22;3081;50.584;7.032;2023-08-17T15:40:26;38.20;97.00
6102;DHT22;3081;50.584;7.032;2023-08-17T15:42:53;38.40;96.00
6102;DHT22;3081;50.584;7.032;2023-08-17T15:45:20;38.10;95.20
6102;DHT22;3081;50.584;7.032;2023-08-17T15:47:49;39.40;95.80
6102;DHT22;3081;50.584;7.032;2023-08-17T15:50:16;41.50;94.30
6102;DHT22;3081;50.584;7.032;2023-08-17T15:52:43;43.90;91.00
6102;DHT22;3081;50.584;7.032;2023-08-17T15:55:10;45.50;86.80
6102;DHT22;3081;50.584;7.032;2023-08-17T15:57:37;45.90;81.00
6102;DHT22;3081;50.584;7.032;2023-08-17T16:00:05;45.40;78.90
6102;DHT22;3081;50.584;7.032;2023-08-17T16:02:32;46.40;76.20
6102;DHT22;3081;50.584;7.032;2023-08-17T16:05:00;47.00;71.30
6102;DHT22;3081;50.584;7.032;2023-08-17T16:07:27;46.30;71.30
6102;DHT22;3081;50.584;7.032;2023-08-17T16:09:54;44.90;70.20
6102;DHT22;3081;50.584;7.032;2023-08-17T16:12:20;44.50;71.80
6102;DHT22;3081;50.584;7.032;2023-08-17T16:14:47;44.90;71.30
6102;DHT22;3081;50.584;7.032;2023-08-17T16:17:14;43.40;70.90
6102;DHT22;3081;50.584;7.032;2023-08-17T16:19:41;41.00;73.40
6102;DHT22;3081;50.584;7.032;2023-08-17T16:22:10;38.50;77.00
6102;DHT22;3081;50.584;7.032;2023-08-17T16:24:36;36.10;81.10
6102;DHT22;3081;50.584;7.032;2023-08-17T16:27:04;34.20;84.80
6102;DHT22;3081;50.584;7.032;2023-08-17T16:29:31;32.80;88.70
6102;DHT22;3081;50.584;7.032;2023-08-17T16:31:59;31.80;91.10
6102;DHT22;3081;50.584;7.032;2023-08-17T16:34:27;31.00;92.30
6102;DHT22;3081;50.584;7.032;2023-08-17T16:36:54;30.30;93.80
6102;DHT22;3081;50.584;7.032;2023-08-17T16:39:22;29.70;95.40
6102;DHT22;3081;50.584;7.032;2023-08-17T16:41:49;29.20;96.70
6102;DHT22;3081;50.584;7.032;2023-08-17T16:44:17;28.90;97.60
6102;DHT22;3081;50.584;7.032;2023-08-17T16:46:44;28.70;98.50
6102;DHT22;3081;50.584;7.032;2023-08-17T16:49:11;29.00;99.60
6102;DHT22;3081;50.584;7.032;2023-08-17T16:51:38;30.50;99.90
6102;DHT22;3081;50.584;7.032;2023-08-17T16:54:05;32.50;97.70
6102;DHT22;3081;50.584;7.032;2023-08-17T16:56:33;34.60;95.10
6102;DHT22;3081;50.584;7.032;2023-08-17T16:59:00;36.40;92.80
6102;DHT22;3081;50.584;7.032;2023-08-17T17:01:27;36.80;91.10
6102;DHT22;3081;50.584;7.032;2023-08-17T17:03:54;37.20;90.70
6102;DHT22;3081;50.584;7.032;2023-08-17T17:06:21;37.70;89.90
6102;DHT22;3081;50.584;7.032;2023-08-17T17:08:48;37.10;88.70
6102;DHT22;3081;50.584;7.032;2023-08-17T17:11:14;36.60;90.00
6102;DHT22;3081;50.584;7.032;2023-08-17T17:13:43;35.80;90.30
6102;DHT22;3081;50.584;7.032;2023-08-17T17:16:10;35.40;91.00
6102;DHT22;3081;50.584;7.032;2023-08-17T17:18:37;34.60;91.40
6102;DHT22;3081;50.584;7.032;2023-08-17T17:21:06;33.30;92.10
6102;DHT22;3081;50.584;7.032;2023-08-17T17:23:33;31.90;93.50
6102;DHT22;3081;50.584;7.032;2023-08-17T17:26:00;30.70;95.50
6102;DHT22;3081;50.584;7.032;2023-08-17T17:28:32;29.60;97.30
6102;DHT22;3081;50.584;7.032;2023-08-17T17:31:02;28.80;99.10
6102;DHT22;3081;50.584;7.032;2023-08-17T17:33:30;28.20;99.90
6102;DHT22;3081;50.584;7.032;2023-08-17T17:35:57;27.80;99.90
6102;DHT22;3081;50.584;7.032;2023-08-17T17:38:24;27.40;99.90
6102;DHT22;3081;50.584;7.032;2023-08-17T17:40:51;27.10;99.90
6102;DHT22;3081;50.584;7.032;2023-08-17T17:43:18;26.80;99.90
6102;DHT22;3081;50.584;7.032;2023-08-17T17:45:45;26.60;99.90
6102;DHT22;3081;50.584;7.032;2023-08-17T17:48:13;26.40;99.90
6102;DHT22;3081;50.584;7.032;2023-08-17T17:50:40;26.20;99.90
6102;DHT22;3081;50.584;7.032;2023-08-17T17:53:08;26.10;99.90
6102;DHT22;3081;50.584;7.032;2023-08-17T17:55:35;26.00;99.90
6102;DHT22;3081;50.584;7.032;2023-08-17T17:58:03;25.80;99.90
6102;DHT22;3081;50.584;7.032;2023-08-17T18:00:31;25.70;99.90
6102;DHT22;3081;50.584;7.032;2023-08-17T18:03:08;25.60;99.90
6102;DHT22;3081;50.584;7.032;2023-08-17T18:05:37;25.50;99.90
6102;DHT22;3081;50.584;7.032;2023-08-17T18:08:05;25.30;99.90
6102;DHT22;3081;50.584;7.032;2023-08-17T18:10:33;25.20;99.90
6102;DHT22;3081;50.584;7.032;2023-08-17T18:13:00;25.00;99.90
6102;DHT22;3081;50.584;7.032;2023-08-17T18:15:27;24.90;99.90
6102;DHT22;3081;50.584;7.032;2023-08-17T18:17:54;24.90;99.90
6102;DHT22;3081;50.584;7.032;2023-08-17T18:20:21;24.80;99.90
6102;DHT22;3081;50.584;7.032;2023-08-17T18:22:49;24.70;99.90
6102;DHT22;3081;50.584;7.032;2023-08-17T18:25:16;24.70;99.90
6102;DHT22;3081;50.584;7.032;2023-08-17T18:27:43;24.60;99.90
6102;DHT22;3081;50.584;7.032;2023-08-17T18:30:11;24.50;99.90
6102;DHT22;3081;50.584;7.032;2023-08-17T18:32:38;24.50;99.90
6102;DHT22;3081;50.584;7.032;2023-08-17T18:35:06;24.40;99.90
6102;DHT22;3081;50.584;7.032;2023-08-17T18:37:33;24.40;99.90
6102;DHT22;3081;50.584;7.032;2023-08-17T18:40:03;24.30;99.90
6102;DHT22;3081;50.584;7.032;2023-08-17T18:42:30;24.30;99.90
6102;DHT22;3081;50.584;7.032;2023-08-17T18:44:57;24.20;99.90
6102;DHT22;3081;50.584;7.032;2023-08-17T18:47:24;24.10;99.90
6102;DHT22;3081;50.584;7.032;2023-08-17T18:49:51;24.10;99.90
6102;DHT22;3081;50.584;7.032;2023-08-17T18:52:18;24.00;99.90
6102;DHT22;3081;50.584;7.032;2023-08-17T18:55:04;23.90;99.90
6102;DHT22;3081;50.584;7.032;2023-08-17T18:57:37;23.80;99.90
6102;DHT22;3081;50.584;7.032;2023-08-17T19:00:05;23.80;99.90
6102;DHT22;3081;50.584;7.032;2023-08-17T19:02:32;23.80;99.90
6102;DHT22;3081;50.584;7.032;2023-08-17T19:04:59;23.70;99.90
6102;DHT22;3081;50.584;7.032;2023-08-17T19:07:28;23.60;99.90
6102;DHT22;3081;50.584;7.032;2023-08-17T19:09:55;23.50;99.90
6102;DHT22;3081;50.584;7.032;2023-08-17T19:12:23;23.50;99.90